createdAt,value
2018-06-27T00:00:04.049Z,0.00
2018-06-27T00:01:04.005Z,0.00
2018-06-27T00:02:04.012Z,0.00
2018-06-27T00:03:03.975Z,0.00
2018-06-27T00:04:03.967Z,0.00
2018-06-27T00:05:03.947Z,0.00
2018-06-27T00:06:03.946Z,0.00
2018-06-27T00:07:03.928Z,0.00
2018-06-27T00:08:03.921Z,0.00
2018-06-27T00:09:03.907Z,0.00
2018-06-27T00:10:03.897Z,0.00
2018-06-27T00:11:03.915Z,0.00
2018-06-27T00:12:03.887Z,0.00
2018-06-27T00:13:03.877Z,0.00
2018-06-27T00:14:03.843Z,0.00
2018-06-27T00:15:03.835Z,0.00
2018-06-27T00:16:03.823Z,0.00
2018-06-27T00:17:03.811Z,0.00
2018-06-27T00:18:03.841Z,0.00
2018-06-27T00:19:03.788Z,0.00
2018-06-27T00:20:03.784Z,0.00
2018-06-27T00:21:03.763Z,0.00
2018-06-27T00:22:03.758Z,0.00
2018-06-27T00:23:03.807Z,0.00
2018-06-27T00:24:03.737Z,0.00
2018-06-27T00:25:03.728Z,0.00
2018-06-27T00:26:03.715Z,0.00
2018-06-27T00:27:03.695Z,0.00
2018-06-27T00:28:03.847Z,0.00
2018-06-27T00:29:03.697Z,0.00
2018-06-27T00:30:03.677Z,0.00
2018-06-27T00:31:03.662Z,0.00
2018-06-27T00:32:03.649Z,0.00
2018-06-27T00:33:03.644Z,0.00
2018-06-27T00:34:03.646Z,0.00
2018-06-27T00:35:03.612Z,0.00
2018-06-27T00:36:03.598Z,0.00
2018-06-27T00:37:03.579Z,0.00
2018-06-27T00:38:03.576Z,0.00
2018-06-27T00:39:03.559Z,0.00
2018-06-27T00:40:03.585Z,0.00
2018-06-27T00:41:03.538Z,0.00
2018-06-27T00:42:03.528Z,0.00
2018-06-27T00:43:03.526Z,0.00
2018-06-27T00:44:03.507Z,0.00
2018-06-27T00:45:03.537Z,0.00
2018-06-27T00:46:03.492Z,0.00
2018-06-27T00:47:03.472Z,0.00
2018-06-27T00:48:03.459Z,0.00
2018-06-27T00:49:03.445Z,0.00
2018-06-27T00:50:03.463Z,0.00
2018-06-27T00:51:03.424Z,0.00
2018-06-27T00:52:03.410Z,0.00
2018-06-27T00:53:03.394Z,0.00
2018-06-27T00:54:03.386Z,0.00
2018-06-27T00:55:03.420Z,0.00
2018-06-27T00:56:03.373Z,0.00
2018-06-27T00:57:03.349Z,0.00
2018-06-27T00:58:03.459Z,0.00
2018-06-27T00:59:03.345Z,0.00
2018-06-27T01:00:03.360Z,0.00
2018-06-27T01:01:03.308Z,0.00
2018-06-27T01:02:03.325Z,0.00
2018-06-27T01:03:03.293Z,0.00
2018-06-27T01:04:03.276Z,0.00
2018-06-27T01:05:03.305Z,0.00
2018-06-27T01:06:03.258Z,0.00
2018-06-27T01:07:03.241Z,0.00
2018-06-27T01:08:03.225Z,0.00
2018-06-27T01:09:03.226Z,0.00
2018-06-27T01:10:03.646Z,0.00
2018-06-27T01:11:03.198Z,0.00
2018-06-27T01:12:03.181Z,0.00
2018-06-27T01:13:03.173Z,0.00
2018-06-27T01:14:03.167Z,0.00
2018-06-27T01:15:03.151Z,0.00
2018-06-27T01:16:03.144Z,0.00
2018-06-27T01:17:03.162Z,0.00
2018-06-27T01:18:03.122Z,0.00
2018-06-27T01:19:03.097Z,0.00
2018-06-27T01:20:03.109Z,0.00
2018-06-27T01:21:03.137Z,0.00
2018-06-27T01:22:03.065Z,0.00
2018-06-27T01:23:03.070Z,0.00
2018-06-27T01:24:03.046Z,0.00
2018-06-27T01:25:03.049Z,0.00
2018-06-27T01:26:03.056Z,0.00
2018-06-27T01:27:03.031Z,0.00
2018-06-27T01:28:03.012Z,0.00
2018-06-27T01:29:02.987Z,0.00
2018-06-27T01:30:02.975Z,0.00
2018-06-27T01:31:02.973Z,0.00
2018-06-27T01:32:02.952Z,0.00
2018-06-27T01:33:03.006Z,0.00
2018-06-27T01:34:02.940Z,0.00
2018-06-27T01:35:02.921Z,0.00
2018-06-27T01:36:02.912Z,0.00
2018-06-27T01:37:02.905Z,0.00
2018-06-27T01:38:02.892Z,0.00
2018-06-27T01:39:02.909Z,0.00
2018-06-27T01:40:02.867Z,0.00
2018-06-27T01:41:02.877Z,0.00
2018-06-27T01:42:02.843Z,0.00
2018-06-27T01:43:02.833Z,0.00
2018-06-27T01:44:02.823Z,0.00
2018-06-27T01:45:02.806Z,0.00
2018-06-27T01:46:02.796Z,0.00
2018-06-27T01:47:02.795Z,0.00
2018-06-27T01:48:02.774Z,0.00
2018-06-27T01:49:02.759Z,0.00
2018-06-27T01:50:03.021Z,0.00
2018-06-27T01:51:02.740Z,0.00
2018-06-27T01:52:02.726Z,0.00
2018-06-27T01:53:02.726Z,0.00
2018-06-27T01:54:02.707Z,0.00
2018-06-27T01:55:02.692Z,0.00
2018-06-27T01:56:02.704Z,0.00
2018-06-27T01:57:02.675Z,0.00
2018-06-27T01:58:02.657Z,0.00
2018-06-27T01:59:02.631Z,0.00
2018-06-27T02:00:02.650Z,0.00
2018-06-27T02:01:02.682Z,0.00
2018-06-27T02:02:02.604Z,0.00
2018-06-27T02:03:02.604Z,0.00
2018-06-27T02:04:02.589Z,0.00
2018-06-27T02:05:02.574Z,0.00
2018-06-27T02:06:02.566Z,0.00
2018-06-27T02:07:02.630Z,0.00
2018-06-27T02:08:02.536Z,0.00
2018-06-27T02:09:02.523Z,0.00
2018-06-27T02:10:02.518Z,0.00
2018-06-27T02:11:02.507Z,0.00
2018-06-27T02:12:02.496Z,0.00
2018-06-27T02:13:02.488Z,0.00
2018-06-27T02:14:02.469Z,0.00
2018-06-27T02:15:02.462Z,0.00
2018-06-27T02:16:02.445Z,0.00
2018-06-27T02:17:02.591Z,0.00
2018-06-27T02:18:02.434Z,0.00
2018-06-27T02:19:02.415Z,0.00
2018-06-27T02:20:02.399Z,0.00
2018-06-27T02:21:02.400Z,0.00
2018-06-27T02:22:02.377Z,0.00
2018-06-27T02:23:02.375Z,0.00
2018-06-27T02:24:02.360Z,0.00
2018-06-27T02:25:02.340Z,0.00
2018-06-27T02:26:02.332Z,0.00
2018-06-27T02:27:02.310Z,0.00
2018-06-27T02:28:02.327Z,0.00
2018-06-27T02:29:02.677Z,0.00
2018-06-27T02:30:02.281Z,0.00
2018-06-27T02:31:02.279Z,0.00
2018-06-27T02:32:02.290Z,0.00
2018-06-27T02:33:02.247Z,4.00
2018-06-27T02:34:02.232Z,4.00
2018-06-27T02:35:02.271Z,0.00
2018-06-27T02:36:02.215Z,0.00
2018-06-27T02:37:02.202Z,4.00
2018-06-27T02:38:02.198Z,4.00
2018-06-27T02:39:02.182Z,0.00
2018-06-27T02:40:02.185Z,4.00
2018-06-27T02:41:02.161Z,0.00
2018-06-27T02:42:02.147Z,4.00
2018-06-27T02:43:02.131Z,4.00
2018-06-27T02:44:02.127Z,4.00
2018-06-27T02:45:02.144Z,4.00
2018-06-27T02:46:02.196Z,4.00
2018-06-27T02:47:02.080Z,8.00
2018-06-27T02:48:02.068Z,8.00
2018-06-27T02:49:02.064Z,8.00
2018-06-27T02:50:02.057Z,8.00
2018-06-27T02:51:02.195Z,12.00
2018-06-27T02:52:02.020Z,12.00
2018-06-27T02:53:02.024Z,12.00
2018-06-27T02:54:02.008Z,12.00
2018-06-27T02:55:01.999Z,16.00
2018-06-27T02:56:01.991Z,16.00
2018-06-27T02:57:01.983Z,20.00
2018-06-27T02:58:01.995Z,20.00
2018-06-27T02:59:01.950Z,20.00
2018-06-27T03:00:01.945Z,24.00
2018-06-27T03:01:01.927Z,24.00
2018-06-27T03:02:01.916Z,28.00
2018-06-27T03:03:01.906Z,28.00
2018-06-27T03:04:01.887Z,32.00
2018-06-27T03:05:01.885Z,36.00
2018-06-27T03:06:01.871Z,36.00
2018-06-27T03:07:01.890Z,40.00
2018-06-27T03:08:01.866Z,40.00
2018-06-27T03:09:01.827Z,48.00
2018-06-27T03:10:01.821Z,48.00
2018-06-27T03:11:01.797Z,52.00
2018-06-27T03:12:01.796Z,56.00
2018-06-27T03:13:01.837Z,60.00
2018-06-27T03:14:01.773Z,60.00
2018-06-27T03:15:01.762Z,64.00
2018-06-27T03:16:01.750Z,68.00
2018-06-27T03:17:01.743Z,72.00
2018-06-27T03:18:01.750Z,80.00
2018-06-27T03:19:01.716Z,80.00
2018-06-27T03:20:01.717Z,84.00
2018-06-27T03:21:01.689Z,92.00
2018-06-27T03:22:01.681Z,96.00
2018-06-27T03:23:01.701Z,100.00
2018-06-27T03:24:01.653Z,104.00
2018-06-27T03:25:01.656Z,112.00
2018-06-27T03:26:01.630Z,116.00
2018-06-27T03:27:01.619Z,120.00
2018-06-27T03:28:01.612Z,124.00
2018-06-27T03:29:01.596Z,132.00
2018-06-27T03:30:01.582Z,136.00
2018-06-27T03:31:01.578Z,144.00
2018-06-27T03:32:01.580Z,148.00
2018-06-27T03:33:01.586Z,156.00
2018-06-27T03:34:01.554Z,160.00
2018-06-27T03:35:01.683Z,164.00
2018-06-27T03:36:01.519Z,172.00
2018-06-27T03:37:01.501Z,176.00
2018-06-27T03:38:01.491Z,180.00
2018-06-27T03:39:01.480Z,188.00
2018-06-27T03:40:01.464Z,192.00
2018-06-27T03:41:01.716Z,196.00
2018-06-27T03:42:01.444Z,204.00
2018-06-27T03:43:01.440Z,200.00
2018-06-27T03:44:01.448Z,208.00
2018-06-27T03:45:01.416Z,220.00
2018-06-27T03:46:01.408Z,228.00
2018-06-27T03:47:01.391Z,232.00
2018-06-27T03:48:01.391Z,236.00
2018-06-27T03:49:01.367Z,248.00
2018-06-27T03:50:01.359Z,252.00
2018-06-27T03:51:01.333Z,256.00
2018-06-27T03:52:01.361Z,260.00
2018-06-27T03:53:01.314Z,268.00
2018-06-27T03:54:01.307Z,276.00
2018-06-27T03:55:01.290Z,280.00
2018-06-27T03:56:01.287Z,288.00
2018-06-27T03:57:01.313Z,304.00
2018-06-27T03:58:01.281Z,316.00
2018-06-27T03:59:01.308Z,324.00
2018-06-27T04:00:01.232Z,312.00
2018-06-27T04:01:01.226Z,308.00
2018-06-27T04:02:01.239Z,368.00
2018-06-27T04:03:01.244Z,332.00
2018-06-27T04:04:01.188Z,332.00
2018-06-27T04:05:01.171Z,336.00
2018-06-27T04:06:01.159Z,336.00
2018-06-27T04:07:01.154Z,344.00
2018-06-27T04:08:01.170Z,372.00
2018-06-27T04:09:01.122Z,364.00
2018-06-27T04:10:01.122Z,372.00
2018-06-27T04:11:01.130Z,376.00
2018-06-27T04:12:01.246Z,396.00
2018-06-27T04:13:01.253Z,432.00
2018-06-27T04:14:01.070Z,440.00
2018-06-27T04:15:01.059Z,428.00
2018-06-27T04:16:01.038Z,476.00
2018-06-27T04:17:01.029Z,452.00
2018-06-27T04:18:01.228Z,444.00
2018-06-27T04:19:01.049Z,448.00
2018-06-27T04:20:01.000Z,444.00
2018-06-27T04:21:00.989Z,444.00
2018-06-27T04:22:00.972Z,456.00
2018-06-27T04:23:00.964Z,440.00
2018-06-27T04:24:00.954Z,444.00
2018-06-27T04:25:00.958Z,448.00
2018-06-27T04:26:00.932Z,452.00
2018-06-27T04:27:00.912Z,464.00
2018-06-27T04:28:00.945Z,464.00
2018-06-27T04:29:00.895Z,476.00
2018-06-27T04:30:00.879Z,476.00
2018-06-27T04:31:00.869Z,492.00
2018-06-27T04:32:00.857Z,500.00
2018-06-27T04:33:00.879Z,528.00
2018-06-27T04:34:01.039Z,520.00
2018-06-27T04:35:00.817Z,548.00
2018-06-27T04:36:00.846Z,580.00
2018-06-27T04:37:00.789Z,568.00
2018-06-27T04:38:00.808Z,704.00
2018-06-27T04:39:00.802Z,600.00
2018-06-27T04:40:00.752Z,800.00
2018-06-27T04:41:00.751Z,640.00
2018-06-27T04:42:00.734Z,864.00
2018-06-27T04:43:00.729Z,656.00
2018-06-27T04:44:00.720Z,632.00
2018-06-27T04:45:00.730Z,640.00
2018-06-27T04:46:00.705Z,616.00
2018-06-27T04:47:00.674Z,604.00
2018-06-27T04:48:00.664Z,592.00
2018-06-27T04:49:00.664Z,584.00
2018-06-27T04:50:00.676Z,584.00
2018-06-27T04:51:00.715Z,592.00
2018-06-27T04:52:00.624Z,676.00
2018-06-27T04:53:00.618Z,644.00
2018-06-27T04:54:00.599Z,628.00
2018-06-27T04:55:00.680Z,684.00
2018-06-27T04:56:00.644Z,684.00
2018-06-27T04:57:00.564Z,728.00
2018-06-27T04:58:00.556Z,632.00
2018-06-27T04:59:00.537Z,844.00
2018-06-27T05:00:00.527Z,732.00
2018-06-27T05:01:00.521Z,844.00
2018-06-27T05:02:00.533Z,696.00
2018-06-27T05:03:00.496Z,1256.00
2018-06-27T05:04:00.472Z,776.00
2018-06-27T05:05:00.473Z,1252.00
2018-06-27T05:06:00.486Z,984.00
2018-06-27T05:07:00.445Z,764.00
2018-06-27T05:08:00.439Z,888.00
2018-06-27T05:09:00.422Z,952.00
2018-06-27T05:10:00.413Z,824.00
2018-06-27T05:11:00.459Z,896.00
2018-06-27T05:12:00.388Z,1040.00
2018-06-27T05:13:00.378Z,1092.00
2018-06-27T05:14:00.354Z,800.00
2018-06-27T05:15:00.353Z,732.00
2018-06-27T05:16:00.369Z,756.00
2018-06-27T05:17:00.477Z,792.00
2018-06-27T05:18:00.316Z,844.00
2018-06-27T05:19:00.316Z,788.00
2018-06-27T05:20:00.300Z,868.00
2018-06-27T05:21:00.289Z,840.00
2018-06-27T05:22:00.271Z,796.00
2018-06-27T05:23:00.270Z,1020.00
2018-06-27T05:24:00.287Z,836.00
2018-06-27T05:25:00.237Z,868.00
2018-06-27T05:26:00.226Z,1144.00
2018-06-27T05:27:00.219Z,996.00
2018-06-27T05:28:00.217Z,980.00
2018-06-27T05:29:00.186Z,1152.00
2018-06-27T05:30:00.183Z,1080.00
2018-06-27T05:31:00.182Z,1208.00
2018-06-27T05:32:00.159Z,1260.00
2018-06-27T05:33:00.148Z,1392.00
2018-06-27T05:34:00.194Z,1020.00
2018-06-27T05:35:00.125Z,1156.00
2018-06-27T05:36:00.116Z,1420.00
2018-06-27T05:37:00.103Z,1380.00
2018-06-27T05:38:00.125Z,1320.00
2018-06-27T05:39:00.115Z,1436.00
2018-06-27T05:40:00.064Z,1560.00
2018-06-27T05:41:00.055Z,1628.00
2018-06-27T05:42:00.060Z,1608.00
2018-06-27T05:43:00.032Z,1408.00
2018-06-27T05:44:00.050Z,1424.00
2018-06-27T05:45:00.019Z,1260.00
2018-06-27T05:46:00.006Z,1364.00
2018-06-27T05:46:59.998Z,1596.00
2018-06-27T05:47:59.976Z,1508.00
2018-06-27T05:49:00.002Z,1408.00
2018-06-27T05:49:59.955Z,1488.00
2018-06-27T05:50:59.949Z,1424.00
2018-06-27T05:51:59.937Z,1572.00
2018-06-27T05:52:59.921Z,1448.00
2018-06-27T05:53:59.959Z,1704.00
2018-06-27T05:54:59.904Z,1724.00
2018-06-27T05:55:59.893Z,1748.00
2018-06-27T05:56:59.877Z,1820.00
2018-06-27T05:57:59.874Z,1812.00
2018-06-27T05:58:59.864Z,1932.00
2018-06-27T05:59:59.901Z,1836.00
2018-06-27T06:00:59.840Z,1988.00
2018-06-27T06:01:59.825Z,1908.00
2018-06-27T06:02:59.811Z,1852.00
2018-06-27T06:03:59.804Z,1960.00
2018-06-27T06:04:59.782Z,2016.00
2018-06-27T06:05:59.788Z,1892.00
2018-06-27T06:06:59.769Z,2104.00
2018-06-27T06:07:59.771Z,2060.00
2018-06-27T06:08:59.749Z,2180.00
2018-06-27T06:09:59.761Z,2100.00
2018-06-27T06:10:59.757Z,2236.00
2018-06-27T06:11:59.723Z,2028.00
2018-06-27T06:12:59.704Z,2164.00
2018-06-27T06:13:59.686Z,2244.00
2018-06-27T06:14:59.714Z,2432.00
2018-06-27T06:15:59.736Z,2228.00
2018-06-27T06:16:59.661Z,2152.00
2018-06-27T06:17:59.654Z,2132.00
2018-06-27T06:18:59.635Z,2420.00
2018-06-27T06:19:59.637Z,2304.00
2018-06-27T06:20:59.619Z,2104.00
2018-06-27T06:21:59.653Z,2340.00
2018-06-27T06:22:59.607Z,2468.00
2018-06-27T06:23:59.658Z,2400.00
2018-06-27T06:24:59.576Z,2440.00
2018-06-27T06:25:59.576Z,2632.00
2018-06-27T06:26:59.563Z,2688.00
2018-06-27T06:27:59.549Z,2592.00
2018-06-27T06:28:59.544Z,2568.00
2018-06-27T06:29:59.560Z,2504.00
2018-06-27T06:30:59.532Z,2568.00
2018-06-27T06:31:59.501Z,2524.00
2018-06-27T06:32:59.500Z,2548.00
2018-06-27T06:33:59.764Z,2552.00
2018-06-27T06:34:59.488Z,2640.00
2018-06-27T06:35:59.466Z,1688.00
2018-06-27T06:36:59.454Z,1736.00
2018-06-27T06:37:59.449Z,1876.00
2018-06-27T06:38:59.580Z,1716.00
2018-06-27T06:39:59.424Z,1752.00
2018-06-27T06:40:59.427Z,1616.00
2018-06-27T06:41:59.412Z,1360.00
2018-06-27T06:42:59.399Z,1268.00
2018-06-27T06:43:59.384Z,1244.00
2018-06-27T06:44:59.394Z,1228.00
2018-06-27T06:45:59.433Z,1208.00
2018-06-27T06:46:59.795Z,1248.00
2018-06-27T06:47:59.352Z,1272.00
2018-06-27T06:48:59.349Z,1268.00
2018-06-27T06:49:59.325Z,1248.00
2018-06-27T06:50:59.321Z,1240.00
2018-06-27T06:51:59.309Z,1208.00
2018-06-27T06:52:59.301Z,1200.00
2018-06-27T06:53:59.291Z,1200.00
2018-06-27T06:54:59.276Z,1196.00
2018-06-27T06:55:59.278Z,1232.00
2018-06-27T06:56:59.251Z,1240.00
2018-06-27T06:57:59.256Z,1252.00
2018-06-27T06:58:59.238Z,1264.00
2018-06-27T06:59:59.240Z,1288.00
2018-06-27T07:00:59.225Z,1316.00
2018-06-27T07:01:59.211Z,1300.00
2018-06-27T07:02:59.243Z,1292.00
2018-06-27T07:03:59.190Z,1276.00
2018-06-27T07:04:59.210Z,1288.00
2018-06-27T07:05:59.174Z,1276.00
2018-06-27T07:06:59.155Z,1276.00
2018-06-27T07:07:59.209Z,1284.00
2018-06-27T07:08:59.147Z,1320.00
2018-06-27T07:09:59.134Z,1320.00
2018-06-27T07:10:59.150Z,1272.00
2018-06-27T07:11:59.118Z,1284.00
2018-06-27T07:12:59.249Z,1280.00
2018-06-27T07:13:59.101Z,1280.00
2018-06-27T07:14:59.086Z,1284.00
2018-06-27T07:15:59.073Z,1296.00
2018-06-27T07:16:59.058Z,1296.00
2018-06-27T07:17:59.266Z,1320.00
2018-06-27T07:18:59.088Z,1360.00
2018-06-27T07:19:59.043Z,1400.00
2018-06-27T07:20:59.033Z,1412.00
2018-06-27T07:21:59.019Z,1460.00
2018-06-27T07:22:59.021Z,1472.00
2018-06-27T07:23:59.024Z,1524.00
2018-06-27T07:24:59.010Z,1516.00
2018-06-27T07:25:59.020Z,1460.00
2018-06-27T07:26:58.974Z,1524.00
2018-06-27T07:27:58.970Z,1536.00
2018-06-27T07:28:58.943Z,1548.00
2018-06-27T07:29:58.968Z,1552.00
2018-06-27T07:30:59.302Z,1624.00
2018-06-27T07:31:58.941Z,1668.00
2018-06-27T07:32:58.917Z,1724.00
2018-06-27T07:33:58.908Z,1756.00
2018-06-27T07:34:58.897Z,1796.00
2018-06-27T07:35:58.938Z,1820.00
2018-06-27T07:36:58.877Z,1828.00
2018-06-27T07:37:58.868Z,1880.00
2018-06-27T07:38:58.864Z,1888.00
2018-06-27T07:39:58.868Z,1964.00
2018-06-27T07:40:59.295Z,2040.00
2018-06-27T07:41:58.842Z,2032.00
2018-06-27T07:42:59.766Z,2240.00
2018-06-27T07:43:58.835Z,2388.00
2018-06-27T07:44:59.158Z,2188.00
2018-06-27T07:45:58.986Z,2056.00
2018-06-27T07:46:58.929Z,2284.00
2018-06-27T07:47:58.909Z,2276.00
2018-06-27T07:48:58.768Z,2272.00
2018-06-27T07:49:58.761Z,2408.00
2018-06-27T07:50:58.756Z,2472.00
2018-06-27T07:51:58.745Z,2508.00
2018-06-27T07:52:58.786Z,2780.00
2018-06-27T07:53:58.755Z,2832.00
2018-06-27T07:54:58.717Z,2944.00
2018-06-27T07:55:58.709Z,2840.00
2018-06-27T07:56:58.704Z,2776.00
2018-06-27T07:57:58.680Z,2656.00
2018-06-27T07:58:58.757Z,2732.00
2018-06-27T07:59:58.689Z,2764.00
2018-06-27T08:00:58.669Z,2620.00
2018-06-27T08:01:58.668Z,2692.00
2018-06-27T08:02:58.644Z,2628.00
2018-06-27T08:03:58.630Z,2524.00
2018-06-27T08:04:58.629Z,2368.00
2018-06-27T08:05:58.694Z,2264.00
2018-06-27T08:06:58.609Z,2296.00
2018-06-27T08:07:58.603Z,2360.00
2018-06-27T08:08:58.600Z,2412.00
2018-06-27T08:09:58.592Z,2308.00
2018-06-27T08:10:58.584Z,2436.00
2018-06-27T08:11:58.571Z,2524.00
2018-06-27T08:12:58.556Z,2764.00
2018-06-27T08:13:58.540Z,2712.00
2018-06-27T08:14:58.602Z,3356.00
2018-06-27T08:15:58.534Z,4068.00
2018-06-27T08:16:58.514Z,4508.00
2018-06-27T08:17:58.613Z,4740.00
2018-06-27T08:18:58.517Z,5200.00
2018-06-27T08:19:58.486Z,5256.00
2018-06-27T08:20:58.524Z,4956.00
2018-06-27T08:21:58.482Z,4632.00
2018-06-27T08:22:58.517Z,4776.00
2018-06-27T08:23:58.461Z,4700.00
2018-06-27T08:24:58.451Z,4260.00
2018-06-27T08:25:58.484Z,3912.00
2018-06-27T08:26:58.436Z,3596.00
2018-06-27T08:28:01.767Z,3368.00
2018-06-27T08:28:58.419Z,3136.00
2018-06-27T08:29:58.427Z,2924.00
2018-06-27T08:30:58.520Z,2812.00
2018-06-27T08:31:58.389Z,3200.00
2018-06-27T08:32:58.378Z,3724.00
2018-06-27T08:33:58.532Z,4300.00
2018-06-27T08:34:58.490Z,4752.00
2018-06-27T08:35:58.389Z,5784.00
2018-06-27T08:36:58.392Z,9404.00
2018-06-27T08:37:58.347Z,15520.00
2018-06-27T08:38:58.337Z,23456.00
2018-06-27T08:39:58.335Z,42080.00
2018-06-27T08:40:58.341Z,29664.00
2018-06-27T08:41:58.448Z,28288.00
2018-06-27T08:42:58.378Z,23232.00
2018-06-27T08:43:58.447Z,25408.00
2018-06-27T08:44:59.120Z,38688.00
2018-06-27T08:45:58.998Z,34368.00
2018-06-27T08:46:58.702Z,35232.00
2018-06-27T08:47:58.682Z,39136.00
2018-06-27T08:48:58.867Z,43040.00
2018-06-27T08:49:59.419Z,44480.00
2018-06-27T08:50:59.030Z,42880.00
2018-06-27T08:51:58.928Z,39008.00
2018-06-27T08:52:58.912Z,39744.00
2018-06-27T08:53:59.047Z,44960.00
2018-06-27T08:54:58.907Z,50208.00
2018-06-27T08:55:59.097Z,53120.00
2018-06-27T08:56:58.843Z,53888.00
2018-06-27T08:57:58.751Z,56096.00
2018-06-27T08:58:59.034Z,58848.00
2018-06-27T08:59:58.749Z,62816.00
2018-06-27T09:00:58.820Z,67392.00
2018-06-27T09:01:59.057Z,66656.00
2018-06-27T09:02:58.888Z,82368.00
2018-06-27T09:03:58.911Z,93184.00
2018-06-27T09:04:58.907Z,92384.00
2018-06-27T09:05:58.905Z,93568.00
2018-06-27T09:06:59.380Z,90208.00
2018-06-27T09:07:59.024Z,81504.00
2018-06-27T09:08:59.049Z,80576.00
2018-06-27T09:09:58.803Z,80384.00
2018-06-27T09:10:58.847Z,86656.00
2018-06-27T09:11:58.892Z,96000.00
2018-06-27T09:12:59.279Z,9568.00
2018-06-27T09:13:58.914Z,79200.00
2018-06-27T09:14:58.939Z,73888.00
2018-06-27T09:15:58.975Z,80832.00
2018-06-27T09:16:59.063Z,92672.00
2018-06-27T09:17:58.767Z,92800.00
2018-06-27T09:18:58.917Z,93856.00
2018-06-27T09:19:58.934Z,101920.00
2018-06-27T09:20:58.972Z,104032.00
2018-06-27T09:21:58.781Z,97152.00
2018-06-27T09:22:58.252Z,93856.00
2018-06-27T09:23:58.252Z,95104.00
2018-06-27T09:24:58.278Z,88896.00
2018-06-27T09:25:58.331Z,86240.00
2018-06-27T09:26:58.265Z,83840.00
2018-06-27T09:27:58.276Z,76512.00
2018-06-27T09:28:58.277Z,74496.00
2018-06-27T09:29:58.280Z,74240.00
2018-06-27T09:30:58.349Z,87904.00
2018-06-27T09:31:58.278Z,99968.00
2018-06-27T09:32:58.290Z,94944.00
2018-06-27T09:33:58.313Z,92416.00
2018-06-27T09:34:58.298Z,89696.00
2018-06-27T09:35:58.305Z,90240.00
2018-06-27T09:36:58.366Z,92480.00
2018-06-27T09:37:58.316Z,93184.00
2018-06-27T09:38:58.323Z,91264.00
2018-06-27T09:39:58.327Z,91680.00
2018-06-27T09:40:58.329Z,91008.00
2018-06-27T09:41:58.542Z,90144.00
2018-06-27T09:42:58.341Z,91456.00
2018-06-27T09:43:58.354Z,94720.00
2018-06-27T09:44:58.355Z,97472.00
2018-06-27T09:45:58.370Z,100288.00
2018-06-27T09:46:58.368Z,97632.00
2018-06-27T09:47:58.406Z,93216.00
2018-06-27T09:48:58.403Z,93056.00
2018-06-27T09:49:58.393Z,88032.00
2018-06-27T09:50:58.387Z,90016.00
2018-06-27T09:51:58.410Z,93824.00
2018-06-27T09:52:58.402Z,93408.00
2018-06-27T09:53:58.780Z,95072.00
2018-06-27T09:54:58.417Z,86976.00
2018-06-27T09:55:58.431Z,79168.00
2018-06-27T09:56:58.438Z,77856.00
2018-06-27T09:57:58.454Z,81312.00
2018-06-27T09:58:58.448Z,82400.00
2018-06-27T09:59:58.498Z,84256.00
2018-06-27T10:00:58.464Z,87552.00
2018-06-27T10:01:58.475Z,88928.00
2018-06-27T10:02:58.476Z,89984.00
2018-06-27T10:03:58.477Z,85664.00
2018-06-27T10:04:58.516Z,77920.00
2018-06-27T10:05:58.503Z,76704.00
2018-06-27T10:06:58.507Z,79424.00
2018-06-27T10:07:58.503Z,80224.00
2018-06-27T10:08:58.512Z,91104.00
2018-06-27T10:09:58.567Z,82496.00
2018-06-27T10:10:58.532Z,72960.00
2018-06-27T10:11:58.539Z,53344.00
2018-06-27T10:12:58.548Z,23552.00
2018-06-27T10:13:58.564Z,20576.00
2018-06-27T10:14:58.557Z,67904.00
2018-06-27T10:15:58.583Z,85152.00
2018-06-27T10:16:58.604Z,89632.00
2018-06-27T10:17:58.590Z,97088.00
2018-06-27T10:18:58.596Z,104768.00
2018-06-27T10:19:58.593Z,105856.00
2018-06-27T10:20:58.641Z,27296.00
2018-06-27T10:21:58.616Z,155008.00
2018-06-27T10:22:58.628Z,93728.00
2018-06-27T10:23:58.633Z,93792.00
2018-06-27T10:24:58.791Z,102688.00
2018-06-27T10:25:58.646Z,112192.00
2018-06-27T10:26:58.653Z,121280.00
2018-06-27T10:27:58.661Z,108992.00
2018-06-27T10:28:58.665Z,88640.00
2018-06-27T10:29:58.669Z,89760.00
2018-06-27T10:30:58.680Z,21728.00
2018-06-27T10:31:58.686Z,100128.00
2018-06-27T10:32:58.709Z,110752.00
2018-06-27T10:33:58.715Z,88384.00
2018-06-27T10:34:58.748Z,97600.00
2018-06-27T10:35:58.859Z,99296.00
2018-06-27T10:36:58.730Z,101344.00
2018-06-27T10:37:58.749Z,94240.00
2018-06-27T10:38:58.744Z,95616.00
2018-06-27T10:39:58.762Z,76960.00
2018-06-27T10:40:58.770Z,91744.00
2018-06-27T10:41:58.790Z,86400.00
2018-06-27T10:42:58.770Z,22208.00
2018-06-27T10:43:58.798Z,100352.00
2018-06-27T10:44:58.797Z,99968.00
2018-06-27T10:45:58.851Z,81248.00
2018-06-27T10:46:58.818Z,81088.00
2018-06-27T10:47:58.830Z,85664.00
2018-06-27T10:48:58.830Z,91104.00
2018-06-27T10:49:58.833Z,87520.00
2018-06-27T10:50:58.845Z,84480.00
2018-06-27T10:51:58.886Z,88480.00
2018-06-27T10:52:58.856Z,83232.00
2018-06-27T10:53:58.873Z,74592.00
2018-06-27T10:54:58.879Z,75840.00
2018-06-27T10:55:58.922Z,36128.00
2018-06-27T10:56:59.395Z,92416.00
2018-06-27T10:57:58.905Z,85952.00
2018-06-27T10:58:58.910Z,67456.00
2018-06-27T10:59:58.921Z,49056.00
2018-06-27T11:00:58.937Z,64736.00
2018-06-27T11:01:58.968Z,13312.00
2018-06-27T11:02:58.948Z,12480.00
2018-06-27T11:03:59.004Z,22304.00
2018-06-27T11:04:58.958Z,13120.00
2018-06-27T11:05:58.967Z,20768.00
2018-06-27T11:06:58.979Z,6020.00
2018-06-27T11:07:58.994Z,70752.00
2018-06-27T11:08:58.992Z,39200.00
2018-06-27T11:09:58.999Z,98112.00
2018-06-27T11:10:59.008Z,97792.00
2018-06-27T11:11:59.053Z,8648.00
2018-06-27T11:12:59.021Z,106656.00
2018-06-27T11:13:59.032Z,99488.00
2018-06-27T11:14:59.033Z,98528.00
2018-06-27T11:15:59.086Z,7360.00
2018-06-27T11:16:59.036Z,113312.00
2018-06-27T11:17:59.052Z,23488.00
2018-06-27T11:18:59.064Z,13988.00
2018-06-27T11:19:59.065Z,107040.00
2018-06-27T11:20:59.092Z,22080.00
2018-06-27T11:21:59.082Z,56992.00
2018-06-27T11:22:59.096Z,113760.00
2018-06-27T11:23:59.084Z,62528.00
2018-06-27T11:24:59.163Z,112608.00
2018-06-27T11:25:59.113Z,7688.00
2018-06-27T11:26:59.154Z,71136.00
2018-06-27T11:27:59.145Z,101728.00
2018-06-27T11:28:59.120Z,5912.00
2018-06-27T11:29:59.128Z,7860.00
2018-06-27T11:30:59.134Z,23584.00
2018-06-27T11:31:59.135Z,108000.00
2018-06-27T11:32:59.144Z,15136.00
2018-06-27T11:33:59.148Z,8228.00
2018-06-27T11:34:59.160Z,3396.00
2018-06-27T11:35:59.259Z,35200.00
2018-06-27T11:36:59.169Z,62272.00
2018-06-27T11:37:59.165Z,101344.00
2018-06-27T11:38:59.177Z,96992.00
2018-06-27T11:39:59.190Z,104032.00
2018-06-27T11:40:59.168Z,87264.00
2018-06-27T11:41:59.227Z,88288.00
2018-06-27T11:42:59.197Z,81184.00
2018-06-27T11:43:59.202Z,72640.00
2018-06-27T11:44:59.199Z,12784.00
2018-06-27T11:45:59.207Z,7308.00
2018-06-27T11:46:59.351Z,96832.00
2018-06-27T11:47:59.219Z,102240.00
2018-06-27T11:48:59.229Z,82528.00
2018-06-27T11:49:59.225Z,85344.00
2018-06-27T11:50:59.243Z,7584.00
2018-06-27T11:51:59.237Z,4372.00
2018-06-27T11:52:59.249Z,4216.00
2018-06-27T11:53:59.246Z,5568.00
2018-06-27T11:54:59.246Z,7244.00
2018-06-27T11:55:59.251Z,9480.00
2018-06-27T11:56:59.271Z,15472.00
2018-06-27T11:57:59.270Z,6168.00
2018-06-27T11:58:59.291Z,4912.00
2018-06-27T11:59:59.279Z,5272.00
2018-06-27T12:00:59.280Z,5492.00
2018-06-27T12:01:59.285Z,3088.00
2018-06-27T12:02:59.307Z,6744.00
2018-06-27T12:03:59.284Z,22176.00
2018-06-27T12:04:59.289Z,10836.00
2018-06-27T12:05:59.314Z,3484.00
2018-06-27T12:06:59.302Z,3276.00
2018-06-27T12:07:59.327Z,3000.00
2018-06-27T12:08:59.305Z,2952.00
2018-06-27T12:09:59.353Z,3340.00
2018-06-27T12:10:59.305Z,5464.00
2018-06-27T12:11:59.320Z,5020.00
2018-06-27T12:12:59.320Z,4776.00
2018-06-27T12:13:59.313Z,3376.00
2018-06-27T12:14:59.318Z,3460.00
2018-06-27T12:15:59.350Z,3140.00
2018-06-27T12:16:59.361Z,2996.00
2018-06-27T12:17:59.323Z,3276.00
2018-06-27T12:18:59.340Z,3292.00
2018-06-27T12:19:59.423Z,2848.00